Terminal Aerodrome Forecast
Issued by NWS

Home | Current Version | Previous Version | Text Only | Print | Product List | Glossary On
Versions: 1 2 3 4 5 6 7 8 9 10 11 12 13
000
FTUS46 KSGX 261725
TAFTRM
TAF
KTRM 261725Z 2618/2718 32010KT P6SM FEW200
     FM261900 VRB06KT P6SM FEW200
     FM262100 14009KT P6SM FEW200
     FM270300 33011KT P6SM FEW200=

USA.gov is the U.S. government's official web portal to all federal, state and local government web resources and services.